Flight Track Log - Related Links

Times and Time Zones

All times are in EDT time to prevent confusion due to time zone crossing. See the RPA3228 flight status page for this flight to view local times or setup timezone preferences in your user account.

Time Position Orientation Groundspeed Altitude Reporting Facility
EDT Latitude Longitude Course Direction KTS MPH feet Rate Location/Type
Sat 07:49:00 AM 34.8313 -86.3040 59° Northeast  Level FlightAware Approximate
Sat 07:49:44 AM 34.7533 -86.5733 81° East 289 333 9,700  Level Memphis Center
Sat 07:50:00 AM 34.8459 -86.1743 83° East  Level FlightAware Approximate
Sat 07:50:44 AM 34.7856 -86.4681 70° East 306 352 11,800  Level Memphis Center
Sat 07:51:00 AM 34.8557 -86.0435 86° East  Level FlightAware Approximate
Sat 07:51:44 AM 34.8217 -86.3528 69° East 334 384 14,200  Level Memphis Center
Sat 07:52:00 AM 34.8638 -85.9131 86° East  Level FlightAware Approximate
Sat 07:52:44 AM 34.8464 -86.2122 78° East 369 425 16,600  Level Memphis Center
Sat 07:53:00 AM 34.8854 -85.7864 85° East  Level FlightAware Approximate
Sat 07:53:15 AM 34.8553 -86.1422 81° East 380 437 17,800  Level Atlanta Center
Sat 07:54:00 AM 34.8941 -85.6560 85° East  Level FlightAware Approximate
Sat 07:54:15 AM 34.8722 -86.0008 82° East 412 474 19,600  Level Atlanta Center
Sat 07:55:00 AM 34.9051 -85.5259 81° East  Level FlightAware Approximate
Sat 07:55:15 AM 34.8869 -85.8569 83° East 419 482 21,300  Level Atlanta Center
Sat 07:56:15 AM 34.8992 -85.7256 83° East 429 494 23,000 1,650 Climbing Atlanta Center
Sat 07:57:15 AM 34.9181 -85.5739 81° East 440 506 24,600 1,600 Climbing Atlanta Center
Sat 07:58:15 AM 34.9322 -85.4169 84° East 452 520 26,200 1,550 Climbing Atlanta Center
Sat 07:59:15 AM 34.9486 -85.2578 83° East 465 535 27,700 1,500 Climbing Atlanta Center
Sat 08:00:15 AM 34.9731 -85.0958 80° East 476 548 29,200 1,550 Climbing Atlanta Center
Sat 08:01:15 AM 35.0161 -84.9161 74° East 486 559 30,800 1,550 Climbing Atlanta Center
Sat 08:02:15 AM 35.0547 -84.7492 74° East 496 571 32,300 1,100 Climbing Atlanta Center
Sat 08:03:15 AM 35.0911 -84.5844 75° East 496 571 33,000 350 Climbing Atlanta Center
Sat 08:04:15 AM 35.1294 -84.4222 74° East 491 565 33,000  Level Atlanta Center
Sat 08:05:15 AM 35.1653 -84.2597 75° East 491 565 33,000  Level Atlanta Center
Sat 08:06:15 AM 35.2031 -84.0947 74° East 491 565 33,000  Level Atlanta Center
Sat 08:07:15 AM 35.2406 -83.9319 74° East 491 565 33,000  Level Atlanta Center
Sat 08:08:15 AM 35.2736 -83.7692 76° East 491 565 33,000  Level Atlanta Center
Sat 08:09:15 AM 35.3106 -83.6061 74° East 491 565 33,000  Level Atlanta Center
Sat 08:10:15 AM 35.3475 -83.4431 74° East 491 565 33,000  Level Atlanta Center
Sat 08:11:15 AM 35.3822 -83.2772 76° East 491 565 33,000  Level Atlanta Center
Sat 08:12:15 AM 35.4164 -83.1086 76° East 491 565 33,000  Level Atlanta Center
Sat 08:13:15 AM 35.4525 -82.9450 75° East 491 565 33,000  Level Atlanta Center
Sat 08:14:15 AM 35.4864 -82.7814 76° East 491 565 33,000  Level Atlanta Center
Sat 08:15:15 AM 35.5222 -82.6150 75° East 491 565 33,000  Level Atlanta Center
Sat 08:16:15 AM 35.5558 -82.4689 74° East 485 558 33,000  Level Atlanta Center
Sat 08:17:15 AM 35.5931 -82.2894 76° East 485 558 33,000  Level Atlanta Center
Sat 08:18:15 AM 35.6281 -82.1225 75° East 497 572 33,000  Level Atlanta Center
Sat 08:19:15 AM 35.6631 -81.9531 76° East 497 572 33,000  Level Atlanta Center
Sat 08:20:15 AM 35.6975 -81.7858 76° East 497 572 33,000  Level Atlanta Center
Sat 08:21:15 AM 35.7319 -81.6186 76° East 497 572 33,000  Level Atlanta Center
Sat 08:22:15 AM 35.7639 -81.4464 77° East 497 572 33,000  Level Atlanta Center
Sat 08:23:15 AM 35.7961 -81.2967 75° East 502 578 33,000  Level Atlanta Center
Sat 08:24:15 AM 35.8297 -81.1214 77° East 508 585 33,000  Level Atlanta Center
Sat 08:25:15 AM 35.8589 -80.9564 78° East 508 585 33,000  Level Atlanta Center
Sat 08:26:15 AM 35.8936 -80.7681 77° East 508 585 33,000  Level Atlanta Center
Sat 08:27:15 AM 35.9289 -80.6025 75° East 513 590 33,000  Level Atlanta Center
Sat 08:28:59 AM 35.9814 -80.3175 77° East 527 606 33,000  Level Washington Center
Sat 08:29:59 AM 36.0150 -80.1503 76° East 515 593 33,000  Level Washington Center
Sat 08:30:59 AM 36.0550 -79.9700 75° East 503 579 33,000  Level Washington Center
Sat 08:31:59 AM 36.1356 -79.8228 56° Northeast 493 567 33,000  Level Washington Center
Sat 08:32:59 AM 36.2069 -79.6928 56° Northeast 498 573 33,000  Level Washington Center
Sat 08:33:59 AM 36.2956 -79.5350 55° Northeast 505 581 33,000  Level Washington Center
Sat 08:34:59 AM 36.3775 -79.3919 55° Northeast 505 581 33,000  Level Washington Center
Sat 08:35:59 AM 36.4483 -79.2611 56° Northeast 505 581 33,000 -1,050 Level Washington Center
Sat 08:36:59 AM 36.5406 -79.1053 54° Northeast 505 581 30,900 -2,650 Descending Washington Center
Sat 08:37:59 AM 36.6200 -78.9589 56° Northeast 505 581 27,700 -2,850 Descending Washington Center
Sat 08:38:59 AM 36.6947 -78.8194 56° Northeast 505 581 25,200 -1,350 Descending Washington Center
Sat 08:39:59 AM 36.7669 -78.6878 56° Northeast 483 556 25,000 -100 Descending Washington Center
Sat 08:40:59 AM 36.8306 -78.5708 56° Northeast 463 533 25,000  Level Washington Center
Sat 08:41:59 AM 36.9111 -78.4286 55° Northeast 458 527 25,000  Level Washington Center
Sat 08:42:59 AM 36.9767 -78.3061 56° Northeast 459 528 25,000  Level Washington Center
Sat 08:43:59 AM 37.0550 -78.1606 56° Northeast 459 528 25,000  Level Washington Center
Sat 08:44:59 AM 37.1178 -78.0428 56° Northeast 459 528 25,000  Level Washington Center
Sat 08:45:59 AM 37.2097 -77.9389 42° Northeast 459 528 25,000  Level Washington Center
Sat 08:46:59 AM 37.3175 -77.8611 30° Northeast 439 505 25,000  Level Washington Center
Sat 08:47:59 AM 37.4211 -77.7858 30° Northeast 439 505 25,000  Level Washington Center
Sat 08:48:59 AM 37.5308 -77.7103 29° Northeast 439 505 25,000 -450 Level Washington Center
Sat 08:49:59 AM 37.6367 -77.6319 30° Northeast 439 505 24,100 -1,600 Descending Washington Center
Sat 08:50:59 AM 37.7400 -77.5561 30° Northeast 433 498 21,800 -2,250 Descending Washington Center
Sat 08:51:59 AM 37.8414 -77.4825 30° Northeast 423 487 19,600 -2,200 Descending Washington Center
Sat 08:52:59 AM 37.9489 -77.4061 29° Northeast 418 481 17,400 -2,100 Descending Washington Center
Sat 08:53:59 AM 38.0331 -77.3475 29° Northeast 404 465 15,400 -2,000 Descending Washington Center
Sat 08:54:59 AM 38.1239 -77.2811 30° Northeast 383 441 13,400 -1,950 Descending Washington Center
Sat 08:55:59 AM 38.2122 -77.2169 30° Northeast 369 425 11,500 -1,700 Descending Washington Center
Sat 08:56:59 AM 38.2903 -77.1550 32° Northeast 349 402 10,000 -1,100 Descending Washington Center
Sat 08:57:59 AM 38.3578 -77.1008 32° Northeast 314 361 9,300 -1,000 Descending Washington Center
Sat 08:58:59 AM 38.4147 -77.0464 37° Northeast 278 320 8,000 -1,000 Descending Washington Center
Sat 08:59:59 AM 38.4694 -77.0050 31° Northeast 250 288 7,300 -800 Descending Washington Center
Sat 09:00:59 AM 38.5194 -77.0061 359° North 193 222 6,400 -1,150 Descending Washington Center
Sat 09:01:59 AM 38.5653 -77.0094 357° North 177 204 5,000 -1,150 Descending Washington Center
Sat 09:02:59 AM 38.6131 -77.0158 354° North 171 197 4,100 -919 Descending Washington Center
Sat 09:03:50 AM 38.6500 -77.0167 359° North 168 193 3,300 -649 Descending Potomac TRACON
Sat 09:04:50 AM 38.7000 -77.0167 360° North 167 192 2,900 -645 Descending Potomac TRACON
Sat 09:05:51 AM 38.7500 -77.0333 345° North 163 188 2,000 -887 Descending Potomac TRACON
Sat 09:06:45 AM 38.7833 -77.0167 21° North 144 166 1,200 -684 Descending Potomac TRACON
Sat 09:07:45 AM 38.8167 -77.0167 360° North 125 144 700 -500 Descending Potomac TRACON
Sat 09:09:00 AM 38.8500 -77.0333 North  Level FlightAware Approximate
Sat 09:16:00 AM 38.8519 -77.0377 North  Level Estimated
Sat 09:17:00 AM 38.8500 -77.0333 North  Level FlightAware Approximate
Sat 09:18:00 AM 38.8519 -77.0377 North  Level Estimated
Sat 09:19:00 AM 38.8500 -77.0333 North  Level FlightAware Approximate
Sat 09:20:00 AM 38.8519 -77.0377 North  Level Estimated
Sat 09:21:00 AM 38.8500 -77.0333 North  Level FlightAware Approximate
Sat 09:22:00 AM 38.8519 -77.0377 North  Level Estimated

Login

Don't have an account? Register now (free) for customized features, flight alerts, and more!